Caroline Guidry — WDB2770 — position and weather

sailwx.info

Track history (hours):
 
Tides and Currents Weather Stations Pressure Air Temp Water Temp Dewpoint Dewpoint Depression Visibility Wind Speed Wind Dir Waves Ship Positions

Caroline Guidry

Owner: DANIELLE MARINE TOWING II LLC, CUT OFF, LA. More information available from US FCC via Universal Licensing System and Coast Guard Vessel Documentation Center.

Last reported at 2018-Feb-21 14:35 UTC. Time now 2018-Feb-21 17:16 UTC.
Position N 29°41' W 094°56'.

Length 16 m; draft 2.3 m.

Type: . MMSI: 366879570.

Date/timePositionNaut miles runAvg speedWind from/ knotsBaromVisibWave heightAir tempDewpointWater temp
2018-Feb-21 14:35N 29°41' W 094°56'1 6.1
2018-Feb-21 14:29N 29°41' W 094°55'1 2.0
2018-Feb-21 13:57N 29°42' W 094°55'1 0.0
2018-Feb-20 21:56N 29°42' W 094°55'1 2.9
2018-Feb-20 21:26N 29°40' W 094°56'2 4.4
2018-Feb-20 21:00N 29°41' W 094°58'8 0.2
2018-Feb-19 09:30N 29°47' W 095°04'2 2.0
2018-Feb-19 08:17N 29°46' W 095°06'5 0.2
2018-Feb-18 08:05N 29°43' W 095°01'1 2.3
2018-Feb-18 07:41N 29°44' W 095°02'2 7.4
2018-Feb-18 07:28N 29°45' W 095°04'2 0.0
2018-Feb-16 07:50N 29°45' W 095°06'2 0.1
2018-Feb-15 19:34N 29°47' W 095°04'5 2.6
2018-Feb-15 17:29N 29°42' W 095°01'3 5.4
2018-Feb-15 17:00N 29°41' W 094°58'3 4.2
2018-Feb-15 16:22N 29°42' W 094°55'2 0.2
2018-Feb-15 07:34N 29°43' W 094°57'0 0.0
2018-Feb-15 07:30N 29°43' W 094°57'0 0.0
2018-Feb-15 06:59N 29°43' W 094°57'0 0.0
2018-Feb-15 06:20N 29°43' W 094°57'0 0.0
2018-Feb-15 06:00N 29°43' W 094°57'0 0.0
2018-Feb-15 05:24N 29°43' W 094°57'0 0.0
2018-Feb-15 05:00N 29°43' W 094°57'0 0.0
2018-Feb-15 04:14N 29°43' W 094°57'3 0.4
2018-Feb-14 20:17N 29°41' W 094°59'2 0.1
2018-Feb-12 22:49N 29°43' W 095°01'2 5.7
2018-Feb-12 22:29N 29°42' W 094°60'2 3.5
2018-Feb-12 21:57N 29°41' W 094°58'2 3.1
2018-Feb-12 21:24N 29°40' W 094°56'1 3.1
2018-Feb-12 20:57N 29°42' W 094°55'0 0.3
2018-Feb-12 19:50N 29°42' W 094°55'1 2.9
2018-Feb-12 19:23N 29°43' W 094°56'1 0.2
2018-Feb-12 15:01N 29°42' W 094°55'0 1.1
2018-Feb-12 14:59N 29°42' W 094°55'2 1.8
2018-Feb-12 14:02N 29°40' W 094°56'0 4.3
2018-Feb-12 14:00N 29°40' W 094°56'2 4.1
2018-Feb-12 13:30N 29°41' W 094°58'  
Track history (hours):
 
Tides and Currents Weather Stations Pressure Air Temp Water Temp Dewpoint Dewpoint Depression Visibility Wind Speed Wind Dir Waves Ship Positions

Caroline Guidry

Owner: DANIELLE MARINE TOWING II LLC, CUT OFF, LA. More information available from US FCC via Universal Licensing System and Coast Guard Vessel Documentation Center.

Last reported at 2018-Feb-21 14:35 UTC. Time now 2018-Feb-21 17:16 UTC.
Position N 29°41' W 094°56'.

Length 16 m; draft 2.3 m.

Type: . MMSI: 366879570.

Date/timePositionNaut miles runAvg speedWind from/ knotsBaromVisibWave heightAir tempDewpointWater temp
2018-Feb-21 14:35N 29°41' W 094°56'1 6.1
2018-Feb-21 14:29N 29°41' W 094°55'1 2.0
2018-Feb-21 13:57N 29°42' W 094°55'1 0.0
2018-Feb-20 21:56N 29°42' W 094°55'1 2.9
2018-Feb-20 21:26N 29°40' W 094°56'2 4.4
2018-Feb-20 21:00N 29°41' W 094°58'8 0.2
2018-Feb-19 09:30N 29°47' W 095°04'2 2.0
2018-Feb-19 08:17N 29°46' W 095°06'5 0.2
2018-Feb-18 08:05N 29°43' W 095°01'1 2.3
2018-Feb-18 07:41N 29°44' W 095°02'2 7.4
2018-Feb-18 07:28N 29°45' W 095°04'2 0.0
2018-Feb-16 07:50N 29°45' W 095°06'2 0.1
2018-Feb-15 19:34N 29°47' W 095°04'5 2.6
2018-Feb-15 17:29N 29°42' W 095°01'3 5.4
2018-Feb-15 17:00N 29°41' W 094°58'3 4.2
2018-Feb-15 16:22N 29°42' W 094°55'2 0.2
2018-Feb-15 07:34N 29°43' W 094°57'0 0.0
2018-Feb-15 07:30N 29°43' W 094°57'0 0.0
2018-Feb-15 06:59N 29°43' W 094°57'0 0.0
2018-Feb-15 06:20N 29°43' W 094°57'0 0.0
2018-Feb-15 06:00N 29°43' W 094°57'0 0.0
2018-Feb-15 05:24N 29°43' W 094°57'0 0.0
2018-Feb-15 05:00N 29°43' W 094°57'0 0.0
2018-Feb-15 04:14N 29°43' W 094°57'3 0.4
2018-Feb-14 20:17N 29°41' W 094°59'2 0.1
2018-Feb-12 22:49N 29°43' W 095°01'2 5.7
2018-Feb-12 22:29N 29°42' W 094°60'2 3.5
2018-Feb-12 21:57N 29°41' W 094°58'2 3.1
2018-Feb-12 21:24N 29°40' W 094°56'1 3.1
2018-Feb-12 20:57N 29°42' W 094°55'0 0.3
2018-Feb-12 19:50N 29°42' W 094°55'1 2.9
2018-Feb-12 19:23N 29°43' W 094°56'1 0.2
2018-Feb-12 15:01N 29°42' W 094°55'0 1.1
2018-Feb-12 14:59N 29°42' W 094°55'2 1.8
2018-Feb-12 14:02N 29°40' W 094°56'0 4.3
2018-Feb-12 14:00N 29°40' W 094°56'2 4.1
2018-Feb-12 13:30N 29°41' W 094°58'  

Dump ship's entire track history